createdAt,value
2023-04-01T00:00:08.318Z,9.5
2023-04-01T00:05:08.391Z,9.5
2023-04-01T00:10:08.496Z,9.5
2023-04-01T00:15:08.556Z,9.5
2023-04-01T00:20:08.594Z,9.5
2023-04-01T00:25:08.649Z,9.5
2023-04-01T00:30:09.723Z,9.5
2023-04-01T00:35:08.820Z,9.5
2023-04-01T00:40:09.006Z,9.3
2023-04-01T00:45:08.081Z,9.1
2023-04-01T00:50:08.093Z,9.1
2023-04-01T00:55:08.142Z,9.1
2023-04-01T01:00:08.193Z,9.0
2023-04-01T01:05:08.243Z,9.1
2023-04-01T01:10:18.262Z,9.1
2023-04-01T01:15:08.305Z,9.1
2023-04-01T01:20:15.686Z,9.0
2023-04-01T01:25:08.921Z,9.1
2023-04-01T01:30:09.044Z,9.1
2023-04-01T01:35:10.549Z,9.1
2023-04-01T01:40:08.639Z,9.1
2023-04-01T01:45:08.670Z,9.1
2023-04-01T01:50:08.738Z,9.5
2023-04-01T01:55:08.796Z,9.1
2023-04-01T02:00:08.965Z,9.5
2023-04-01T02:05:08.004Z,9.1
2023-04-01T02:10:08.021Z,8.8
2023-04-01T02:15:08.051Z,9.1
2023-04-01T02:20:08.131Z,8.8
2023-04-01T02:25:08.272Z,9.0
2023-04-01T02:30:08.344Z,8.8
2023-04-01T02:35:08.370Z,9.0
2023-04-01T02:40:08.460Z,8.8
2023-04-01T02:45:08.544Z,9.0
2023-04-01T02:50:08.603Z,9.0
2023-04-01T02:55:08.677Z,9.0
2023-04-01T03:00:08.771Z,8.8
2023-04-01T03:05:08.824Z,8.8
2023-04-01T03:10:08.859Z,8.8
2023-04-01T03:15:11.042Z,9.1
2023-04-01T03:20:08.728Z,8.8
2023-04-01T03:25:08.790Z,8.8
2023-04-01T03:30:08.876Z,9.0
2023-04-01T03:35:08.005Z,9.0
2023-04-01T03:40:08.041Z,9.0
2023-04-01T03:45:08.074Z,9.0
2023-04-01T03:50:08.147Z,9.0
2023-04-01T03:55:08.184Z,9.0
2023-04-01T04:00:08.278Z,8.8
2023-04-01T04:05:02.856Z,8.8
2023-04-01T04:10:03.107Z,8.8
2023-04-01T04:15:02.296Z,8.8
2023-04-01T04:20:02.558Z,8.6
2023-04-01T04:25:02.859Z,8.8
2023-04-01T04:30:02.547Z,8.6
2023-04-01T04:35:02.774Z,8.8
2023-04-01T04:40:03.287Z,8.6
2023-04-01T04:45:02.514Z,8.6
2023-04-01T04:50:02.736Z,8.8
2023-04-01T04:55:02.831Z,8.6
2023-04-01T05:00:03.085Z,8.6
2023-04-01T05:05:02.351Z,8.8
2023-04-01T05:10:02.813Z,8.8
2023-04-01T05:15:02.962Z,8.8
2023-04-01T05:20:02.412Z,8.8
2023-04-01T05:25:03.085Z,8.6
2023-04-01T05:30:02.235Z,8.8
2023-04-01T05:35:02.693Z,8.6
2023-04-01T05:40:03.923Z,8.5
2023-04-01T05:45:03.109Z,8.6
2023-04-01T05:50:02.549Z,8.6
2023-04-01T05:55:02.934Z,8.6
2023-04-01T06:00:03.276Z,8.6
2023-04-01T06:05:02.840Z,8.6
2023-04-01T06:10:03.079Z,8.6
2023-04-01T06:15:08.556Z,8.5
2023-04-01T06:20:03.100Z,8.6
2023-04-01T06:25:02.271Z,8.5
2023-04-01T06:30:02.603Z,8.6
2023-04-01T06:35:02.892Z,8.8
2023-04-01T06:40:03.125Z,8.8
2023-04-01T06:45:07.747Z,8.6
2023-04-01T06:50:02.889Z,8.8
2023-04-01T06:55:03.184Z,8.6
2023-04-01T07:00:02.520Z,8.8
2023-04-01T07:05:02.728Z,9.0
2023-04-01T07:10:02.974Z,9.0
2023-04-01T07:15:02.237Z,9.0
2023-04-01T07:20:02.712Z,9.0
2023-04-01T07:25:02.913Z,9.1
2023-04-01T07:30:03.078Z,9.1
2023-04-01T07:35:02.264Z,9.1
2023-04-01T07:40:02.429Z,9.3
2023-04-01T07:45:02.587Z,9.3
2023-04-01T07:50:02.860Z,9.6
2023-04-01T07:55:03.391Z,9.8
2023-04-01T08:00:02.680Z,9.8
2023-04-01T08:05:03.122Z,9.8
2023-04-01T08:10:02.448Z,9.6
2023-04-01T08:15:02.903Z,9.8
2023-04-01T08:20:03.174Z,9.6
2023-04-01T08:25:02.559Z,10.0
2023-04-01T08:30:12.760Z,10.1
2023-04-01T08:35:03.282Z,10.1
2023-04-01T08:40:02.596Z,10.1
2023-04-01T08:45:02.759Z,10.1
2023-04-01T08:50:02.909Z,10.1
2023-04-01T08:55:02.095Z,10.0
2023-04-01T09:00:05.630Z,10.0
2023-04-01T09:05:03.064Z,10.0
2023-04-01T09:10:02.189Z,10.0
2023-04-01T09:15:02.579Z,9.8
2023-04-01T09:20:02.826Z,10.1
2023-04-01T09:25:02.987Z,10.1
2023-04-01T09:30:02.153Z,10.1
2023-04-01T09:35:12.310Z,10.3
2023-04-01T09:40:02.600Z,10.3
2023-04-01T09:45:02.726Z,10.5
2023-04-01T09:50:02.931Z,10.5
2023-04-01T09:55:03.147Z,10.1
2023-04-01T10:00:12.452Z,10.5
2023-04-01T10:05:02.589Z,10.8
2023-04-01T10:10:02.747Z,10.8
2023-04-01T10:15:02.971Z,11.3
2023-04-01T10:20:02.265Z,11.1
2023-04-01T10:25:06.202Z,11.3
2023-04-01T10:30:02.673Z,11.0
2023-04-01T10:35:02.835Z,11.0
2023-04-01T10:40:02.979Z,10.6
2023-04-01T10:45:02.171Z,10.6
2023-04-01T10:50:08.237Z,10.6
2023-04-01T10:55:02.557Z,10.5
2023-04-01T11:00:02.709Z,10.8
2023-04-01T11:05:02.932Z,10.8
2023-04-01T11:10:12.027Z,10.8
2023-04-01T11:15:02.400Z,11.0
2023-04-01T11:20:02.609Z,10.8
2023-04-01T11:25:03.290Z,10.8
2023-04-01T11:30:02.736Z,11.0
2023-04-01T11:35:02.942Z,10.8
2023-04-01T11:40:02.208Z,10.8
2023-04-01T11:45:02.411Z,10.5
2023-04-01T11:50:02.807Z,10.6
2023-04-01T11:55:02.976Z,10.5
2023-04-01T12:00:02.061Z,10.3
2023-04-01T12:05:02.247Z,10.6
2023-04-01T12:10:02.571Z,10.3
2023-04-01T12:15:02.708Z,10.5
2023-04-01T12:20:04.295Z,10.5
2023-04-01T12:25:02.528Z,10.1
2023-04-01T12:30:02.719Z,10.1
2023-04-01T12:35:02.914Z,10.1
2023-04-01T12:40:03.167Z,10.1
2023-04-01T12:45:02.401Z,10.3
2023-04-01T12:50:12.520Z,10.1
2023-04-01T12:55:02.682Z,10.3
2023-04-01T13:00:02.860Z,10.3
2023-04-01T13:05:03.234Z,10.5
2023-04-01T13:10:02.508Z,10.6
2023-04-01T13:15:05.641Z,10.6
2023-04-01T13:20:06.064Z,10.6
2023-04-01T13:25:02.677Z,10.5
2023-04-01T13:30:02.780Z,10.5
2023-04-01T13:35:03.323Z,10.6
2023-04-01T13:40:02.516Z,10.6
2023-04-01T13:45:02.752Z,10.8
2023-04-01T13:50:02.969Z,11.0
2023-04-01T13:55:02.402Z,11.0
2023-04-01T14:00:12.657Z,10.8
2023-04-01T14:05:02.981Z,10.8
2023-04-01T14:10:02.757Z,11.0
2023-04-01T14:15:02.880Z,10.8
2023-04-01T14:20:13.102Z,10.8
2023-04-01T14:25:02.251Z,10.8
2023-04-01T14:30:02.786Z,10.5
2023-04-01T14:35:03.520Z,10.5
2023-04-01T14:40:02.928Z,10.1
2023-04-01T14:45:02.389Z,10.1
2023-04-01T14:50:03.642Z,10.1
2023-04-01T14:55:03.151Z,10.1
2023-04-01T15:00:02.356Z,10.1
2023-04-01T15:05:02.592Z,10.1
2023-04-01T15:10:12.765Z,10.1
2023-04-01T15:15:03.068Z,10.1
2023-04-01T15:20:02.277Z,10.1
2023-04-01T15:25:02.416Z,10.1
2023-04-01T15:30:02.822Z,10.1
2023-04-01T15:35:03.236Z,10.1
2023-04-01T15:40:02.542Z,10.3
2023-04-01T15:45:02.682Z,10.5
2023-04-01T15:50:03.312Z,10.5
2023-04-01T15:55:02.396Z,10.3
2023-04-01T16:00:12.539Z,10.5
2023-04-01T16:05:02.750Z,10.3
2023-04-01T16:10:02.947Z,10.1
2023-04-01T16:15:02.165Z,10.1
2023-04-01T16:20:02.430Z,10.1
2023-04-01T16:25:02.518Z,10.1
2023-04-01T16:30:02.701Z,10.1
2023-04-01T16:35:03.012Z,10.1
2023-04-01T16:40:02.801Z,10.1
2023-04-01T16:45:02.986Z,10.0
2023-04-01T16:50:02.205Z,10.0
2023-04-01T16:55:02.565Z,10.0
2023-04-01T17:00:02.999Z,9.8
2023-04-01T17:05:02.239Z,10.0
2023-04-01T17:10:02.512Z,9.6
2023-04-01T17:15:09.049Z,9.6
2023-04-01T17:20:12.402Z,9.5
2023-04-01T17:25:02.839Z,9.5
2023-04-01T17:30:03.063Z,9.5
2023-04-01T17:35:02.369Z,9.1
2023-04-01T17:40:02.593Z,9.3
2023-04-01T17:45:02.803Z,9.1
2023-04-01T17:50:12.992Z,9.1
2023-04-01T17:55:02.126Z,9.0
2023-04-01T18:00:02.332Z,9.0
2023-04-01T18:05:02.954Z,8.8
2023-04-01T18:10:02.132Z,8.8
2023-04-01T18:15:02.283Z,8.8
2023-04-01T18:20:02.550Z,8.6
2023-04-01T18:25:02.763Z,8.6
2023-04-01T18:30:03.013Z,8.5
2023-04-01T18:35:02.244Z,8.5
2023-04-01T18:40:02.387Z,8.6
2023-04-01T18:45:02.539Z,8.5
2023-04-01T18:50:02.694Z,8.3
2023-04-01T18:55:02.781Z,8.5
2023-04-01T19:00:02.956Z,8.3
2023-04-01T19:05:02.051Z,8.3
2023-04-01T19:10:02.294Z,8.1
2023-04-01T19:15:02.443Z,8.0
2023-04-01T19:20:02.639Z,8.0
2023-04-01T19:25:02.824Z,8.0
2023-04-01T19:30:02.941Z,8.0
2023-04-01T19:35:12.451Z,7.9
2023-04-01T19:40:02.593Z,8.0
2023-04-01T19:45:02.821Z,7.9
2023-04-01T19:50:02.972Z,7.9
2023-04-01T19:55:02.165Z,7.9
2023-04-01T20:00:02.315Z,7.9
2023-04-01T20:05:02.479Z,7.5
2023-04-01T20:10:02.731Z,7.5
2023-04-01T20:15:02.798Z,7.4
2023-04-01T20:20:02.957Z,7.1
2023-04-01T20:25:02.508Z,7.1
2023-04-01T20:30:02.734Z,7.1
2023-04-01T20:35:12.791Z,7.0
2023-04-01T20:40:03.034Z,7.0
2023-04-01T20:45:02.289Z,6.9
2023-04-01T20:50:02.443Z,7.0
2023-04-01T20:55:12.593Z,6.9
2023-04-01T21:00:02.770Z,6.9
2023-04-01T21:05:02.982Z,6.6
2023-04-01T21:10:02.181Z,6.6
2023-04-01T21:15:02.558Z,6.5
2023-04-01T21:20:12.712Z,6.5
2023-04-01T21:25:02.904Z,6.4
2023-04-01T21:30:03.039Z,6.4
2023-04-01T21:35:03.940Z,6.5
2023-04-01T21:40:02.066Z,6.5
2023-04-01T21:45:02.433Z,6.6
2023-04-01T21:50:02.693Z,6.6
2023-04-01T21:55:02.756Z,6.9
2023-04-01T22:00:03.145Z,6.9
2023-04-01T22:05:15.186Z,6.9
2023-04-01T22:10:08.257Z,6.6
2023-04-01T22:15:08.282Z,6.6
2023-04-01T22:20:13.972Z,6.6
2023-04-01T22:25:08.024Z,6.6
2023-04-01T22:30:08.070Z,6.6
2023-04-01T22:35:08.117Z,6.6
2023-04-01T22:40:08.141Z,6.6
2023-04-01T22:45:11.080Z,6.6
2023-04-01T22:50:08.121Z,6.6
2023-04-01T22:55:08.153Z,6.6
2023-04-01T23:01:12.963Z,6.6
2023-04-01T23:05:08.054Z,6.6
2023-04-01T23:10:08.124Z,6.6
2023-04-01T23:15:08.201Z,6.5
2023-04-01T23:20:08.283Z,6.5
2023-04-01T23:25:18.338Z,6.4
2023-04-01T23:30:08.447Z,6.4
2023-04-01T23:35:08.492Z,6.4
2023-04-01T23:40:08.554Z,6.4
2023-04-01T23:45:08.588Z,6.4
2023-04-01T23:50:08.603Z,6.1
2023-04-01T23:55:08.663Z,6.1
